Time;durP1;ratioP1;P1;durP2;ratioP2;P2;SDS_P1;SDS_P2;PMS_P1;PMS_P2;Temp;Humidity;BMP_temperature;BMP_pressure;BME280_temperature;BME280_humidity;BME280_pressure;Samples;Min_cycle;Max_cycle;Signal;HPM_P1;HPM_P2
2024/01/27 00:01:50;;;;;;;9.20;5.63;;;;;;;2.78;95.49;103373.00;5007947;28;20080;-66
2024/01/27 00:04:16;;;;;;;20.90;6.78;;;;;;;2.72;95.16;103371.19;4992072;28;20025;-66
2024/01/27 00:06:41;;;;;;;15.20;6.35;;;;;;;2.75;95.81;103378.25;5007657;28;20109;-66
2024/01/27 00:09:07;;;;;;;13.25;6.05;;;;;;;2.68;95.72;103372.06;5013499;28;20699;-65
2024/01/27 00:11:32;;;;;;;17.80;7.15;;;;;;;2.62;95.39;103361.47;5012761;28;20105;-66
2024/01/27 00:13:59;;;;;;;9.73;6.10;;;;;;;2.67;96.76;103359.75;5011485;28;20504;-66
2024/01/27 00:16:24;;;;;;;12.88;5.45;;;;;;;2.61;96.27;103353.56;5012763;28;20116;-66
2024/01/27 00:18:50;;;;;;;19.20;6.60;;;;;;;2.60;96.37;103357.06;5012657;28;20104;-66
2024/01/27 00:21:15;;;;;;;17.67;6.23;;;;;;;2.53;97.31;103342.09;5004450;28;20079;-66
2024/01/27 00:23:41;;;;;;;19.05;6.50;;;;;;;2.56;97.75;103345.66;4999434;28;20050;-67
2024/01/27 00:26:06;;;;;;;16.52;6.63;;;;;;;2.56;97.51;103348.28;5001568;28;20477;-67
2024/01/27 00:28:32;;;;;;;18.73;7.47;;;;;;;2.54;96.92;103350.00;4993633;28;20080;-67
2024/01/27 00:30:57;;;;;;;10.00;5.50;;;;;;;2.52;96.85;103343.84;5001342;28;20388;-67
2024/01/27 00:33:25;;;;;;;15.90;6.70;;;;;;;2.53;96.81;103356.13;5003731;28;20381;-67
2024/01/27 00:35:51;;;;;;;19.33;7.15;;;;;;;2.50;97.73;103362.22;5006866;28;20049;-67
2024/01/27 00:38:16;;;;;;;14.55;6.45;;;;;;;2.44;97.98;103359.53;5010519;28;20021;-67
2024/01/27 00:40:42;;;;;;;15.93;5.53;;;;;;;2.50;98.06;103380.63;5009390;28;20029;-67
2024/01/27 00:43:07;;;;;;;18.48;6.15;;;;;;;2.48;98.31;103379.69;5010229;28;20076;-68
2024/01/27 00:45:33;;;;;;;11.10;6.72;;;;;;;2.46;97.82;103377.91;5010413;28;20033;-67
2024/01/27 00:48:00;;;;;;;15.18;6.50;;;;;;;2.43;97.52;103375.25;5009469;28;20033;-67
2024/01/27 00:50:26;;;;;;;17.40;7.93;;;;;;;2.37;97.60;103375.19;5011465;28;20385;-67
2024/01/27 00:52:53;;;;;;;18.05;6.97;;;;;;;2.36;97.21;103378.69;5010965;28;20026;-67
2024/01/27 00:55:19;;;;;;;12.63;6.65;;;;;;;2.35;97.66;103382.16;5011397;28;20030;-67
2024/01/27 00:57:44;;;;;;;15.52;6.32;;;;;;;2.33;97.60;103387.41;5009552;28;20032;-67
2024/01/27 01:00:11;;;;;;;24.75;7.65;;;;;;;2.27;97.75;103376.84;5011103;28;20061;-67
2024/01/27 01:02:37;;;;;;;23.13;6.88;;;;;;;2.34;98.43;103383.03;5009147;28;20524;-67
2024/01/27 01:05:06;;;;;;;13.02;6.10;;;;;;;2.36;98.19;103381.31;5010923;28;20041;-67
2024/01/27 01:07:32;;;;;;;18.03;6.33;;;;;;;2.33;98.33;103383.91;5009253;28;20123;-67
2024/01/27 01:09:57;;;;;;;10.15;6.45;;;;;;;2.30;98.41;103387.38;5010010;28;20803;-67
2024/01/27 01:12:23;;;;;;;21.67;7.35;;;;;;;2.26;98.51;103388.19;5009456;28;20048;-67
2024/01/27 01:14:48;;;;;;;13.85;6.85;;;;;;;2.22;98.01;103394.25;5010301;28;20030;-67
2024/01/27 01:17:14;;;;;;;22.60;7.32;;;;;;;2.23;98.23;103391.63;5010603;28;20035;-67
2024/01/27 01:19:41;;;;;;;16.27;6.25;;;;;;;2.21;98.73;103385.50;5010791;28;20029;-67
2024/01/27 01:22:07;;;;;;;10.15;6.03;;;;;;;2.20;98.28;103388.09;5005265;28;20575;-67
2024/01/27 01:24:32;;;;;;;19.75;7.47;;;;;;;2.17;97.82;103395.94;5001776;28;20033;-67
2024/01/27 01:27:00;;;;;;;25.83;6.82;;;;;;;2.15;97.80;103392.44;4998995;28;20076;-67
2024/01/27 01:29:26;;;;;;;15.52;6.68;;;;;;;2.14;98.41;103385.41;5003393;28;20472;-67
2024/01/27 01:31:51;;;;;;;23.33;7.53;;;;;;;2.05;97.92;103368.66;4997651;28;20053;-67
2024/01/27 01:34:17;;;;;;;16.35;6.60;;;;;;;1.88;98.75;103353.56;4998731;28;20404;-67
2024/01/27 01:36:45;;;;;;;11.40;5.65;;;;;;;1.99;99.09;103375.56;5006821;28;20045;-67
2024/01/27 01:39:12;;;;;;;11.57;6.00;;;;;;;2.04;98.88;103385.28;5009963;28;20028;-66
2024/01/27 01:41:38;;;;;;;23.48;7.80;;;;;;;1.94;98.44;103362.41;5009203;28;20099;-67
2024/01/27 01:44:03;;;;;;;13.85;6.35;;;;;;;2.00;99.70;103378.25;5009735;28;20682;-66
2024/01/27 01:46:32;;;;;;;15.13;7.78;;;;;;;2.01;100.00;103380.00;5009809;28;20424;-67
2024/01/27 01:49:00;;;;;;;12.65;6.20;;;;;;;1.90;99.32;103364.97;5009580;28;20034;-67
2024/01/27 01:51:31;;;;;;;16.25;6.68;;;;;;;1.94;100.00;103383.41;5007773;28;20017;-67
2024/01/27 01:53:58;;;;;;;17.60;7.13;;;;;;;1.97;100.00;103390.41;5012428;28;20026;-67
2024/01/27 01:56:25;;;;;;;22.50;7.43;;;;;;;1.96;100.00;103393.91;5012960;28;20691;-67
2024/01/27 01:58:50;;;;;;;21.15;7.63;;;;;;;1.83;100.00;103374.50;5012854;28;20036;-67
2024/01/27 02:01:19;;;;;;;19.52;7.30;;;;;;;1.93;100.00;103394.75;5014294;28;20022;-67
2024/01/27 02:03:54;;;;;;;19.48;7.22;;;;;;;1.92;100.00;103384.25;5015441;28;20104;-67
2024/01/27 02:06:20;;;;;;;15.02;5.97;;;;;;;1.94;100.00;103387.75;5012538;28;20393;-67
2024/01/27 02:08:46;;;;;;;17.95;7.43;;;;;;;1.87;100.00;103386.78;5013558;28;20022;-67
2024/01/27 02:11:11;;;;;;;12.80;6.70;;;;;;;1.92;100.00;103390.38;5013450;28;20384;-67
2024/01/27 02:13:39;;;;;;;16.17;7.37;;;;;;;1.93;100.00;103392.13;5013830;28;20026;-67
2024/01/27 02:16:05;;;;;;;17.27;6.88;;;;;;;1.81;100.00;103370.97;5003912;28;20030;-67
2024/01/27 02:18:30;;;;;;;16.92;7.13;;;;;;;1.84;100.00;103380.63;5004930;28;20168;-67
2024/01/27 02:20:55;;;;;;;16.00;7.60;;;;;;;1.95;100.00;103386.91;5003480;28;20527;-67
2024/01/27 02:23:21;;;;;;;16.50;6.85;;;;;;;1.90;100.00;103384.22;4999521;28;20077;-67
2024/01/27 02:25:50;;;;;;;16.67;7.37;;;;;;;1.97;100.00;103396.56;5003379;28;20030;-67
2024/01/27 02:28:16;;;;;;;19.42;7.47;;;;;;;1.97;100.00;103396.56;5000521;28;20023;-67
2024/01/27 02:30:41;;;;;;;20.50;7.60;;;;;;;1.99;100.00;103399.19;5004812;28;20469;-67
2024/01/27 02:33:07;;;;;;;14.47;7.20;;;;;;;1.98;100.00;103402.69;5002075;28;20026;-67
2024/01/27 02:35:32;;;;;;;17.97;8.17;;;;;;;1.85;100.00;103385.00;5003560;28;20042;-66
2024/01/27 02:37:57;;;;;;;15.57;7.13;;;;;;;1.92;100.00;103394.75;4998877;28;20022;-67
2024/01/27 02:40:23;;;;;;;18.83;7.17;;;;;;;1.90;100.00;103397.31;4998583;28;20109;-67
2024/01/27 02:42:48;;;;;;;14.53;7.07;;;;;;;1.89;100.00;103399.94;5002001;28;20030;-67
2024/01/27 02:45:14;;;;;;;18.57;6.77;;;;;;;1.90;100.00;103392.06;5001009;28;20453;-67
2024/01/27 02:47:39;;;;;;;21.23;8.10;;;;;;;1.84;100.00;103381.50;5000808;28;20026;-67
2024/01/27 02:50:08;;;;;;;12.43;7.37;;;;;;;1.83;100.00;103390.25;5005182;28;20026;-67
2024/01/27 02:52:34;;;;;;;11.47;6.57;;;;;;;1.89;100.00;103403.44;5002403;28;20030;-67
2024/01/27 02:54:59;;;;;;;19.07;7.43;;;;;;;1.86;100.00;103392.91;5000143;28;20430;-67
2024/01/27 02:57:24;;;;;;;16.60;6.83;;;;;;;1.81;100.00;103386.69;5001848;28;20025;-67
2024/01/27 02:59:52;;;;;;;24.33;8.70;;;;;;;1.85;100.00;103398.13;5003612;28;20030;-67
2024/01/27 03:02:17;;;;;;;21.23;7.53;;;;;;;1.83;100.00;103398.13;5009123;28;20380;-66
2024/01/27 03:04:45;;;;;;;26.83;7.50;;;;;;;1.79;100.00;103389.31;5011048;28;20022;-67
2024/01/27 03:07:11;;;;;;;16.80;7.57;;;;;;;1.76;100.00;103389.25;5009739;28;20045;-67
2024/01/27 03:09:36;;;;;;;13.57;7.37;;;;;;;1.73;100.00;103393.56;5013334;28;20026;-67
2024/01/27 03:12:01;;;;;;;19.33;6.83;;;;;;;1.71;100.00;103395.31;5012610;28;20459;-67
2024/01/27 03:14:27;;;;;;;11.90;7.47;;;;;;;1.69;100.00;103399.66;5011237;28;20028;-67
2024/01/27 03:16:52;;;;;;;22.00;8.07;;;;;;;1.66;100.00;103394.34;5012979;28;20022;-67
2024/01/27 03:19:18;;;;;;;15.07;7.17;;;;;;;1.66;100.00;103407.47;5012598;28;20025;-67
2024/01/27 03:21:43;;;;;;;13.00;6.70;;;;;;;1.64;100.00;103407.44;5010761;28;20044;-67
2024/01/27 03:24:11;;;;;;;19.13;8.03;;;;;;;1.62;100.00;103405.63;5013170;28;20026;-67
2024/01/27 03:26:36;;;;;;;19.57;7.13;;;;;;;1.56;100.00;103399.47;5012260;28;20042;-67
2024/01/27 03:29:02;;;;;;;13.07;6.57;;;;;;;1.48;100.00;103392.34;5011967;28;20034;-67
2024/01/27 03:31:34;;;;;;;12.27;6.70;;;;;;;1.49;100.00;103408.06;5012340;28;20065;-67
2024/01/27 03:34:02;;;;;;;20.00;7.27;;;;;;;1.47;100.00;103403.66;5012395;28;20541;-67
2024/01/27 03:36:28;;;;;;;11.37;7.47;;;;;;;1.39;100.00;103398.31;5002396;28;20437;-67
2024/01/27 03:38:54;;;;;;;14.53;7.47;;;;;;;1.34;100.00;103410.44;4999825;28;20025;-67
2024/01/27 03:41:19;;;;;;;12.77;7.00;;;;;;;1.31;100.00;103403.41;5001491;28;20424;-68
2024/01/27 03:43:45;;;;;;;11.40;6.80;;;;;;;1.37;100.00;103415.75;5002104;28;20027;-67
2024/01/27 03:46:12;;;;;;;17.80;7.40;;;;;;;1.32;100.00;103409.53;4998804;28;20041;-67
2024/01/27 03:48:38;;;;;;;13.20;6.37;;;;;;;1.37;100.00;103413.13;5002375;28;20023;-67
2024/01/27 03:51:03;;;;;;;12.43;6.80;;;;;;;1.36;100.00;103408.75;5000492;28;20034;-67
2024/01/27 03:53:29;;;;;;;18.07;7.43;;;;;;;1.35;100.00;103399.09;5005056;28;20473;-67
2024/01/27 03:55:58;;;;;;;10.50;7.23;;;;;;;1.33;100.00;103409.56;4999868;28;20030;-67
2024/01/27 03:58:24;;;;;;;13.33;7.27;;;;;;;1.32;100.00;103397.34;5000777;28;20084;-67
2024/01/27 04:00:51;;;;;;;11.47;6.50;;;;;;;1.33;100.00;103406.06;5002335;28;20034;-67
2024/01/27 04:03:17;;;;;;;19.23;7.03;;;;;;;1.29;100.00;103409.47;5010434;28;20112;-67
2024/01/27 04:05:42;;;;;;;24.63;7.07;;;;;;;1.30;100.00;103400.78;5010681;28;20109;-67
2024/01/27 04:08:08;;;;;;;18.23;6.83;;;;;;;1.31;100.00;103416.53;5011214;28;20504;-67
2024/01/27 04:10:34;;;;;;;20.00;6.80;;;;;;;1.29;100.00;103412.97;5010426;28;20235;-67
2024/01/27 04:12:59;;;;;;;15.07;6.57;;;;;;;1.29;100.00;103415.59;5010327;28;20022;-67
2024/01/27 04:15:25;;;;;;;20.17;7.03;;;;;;;1.28;100.00;103415.59;5010859;28;20029;-67
2024/01/27 04:17:50;;;;;;;22.40;7.10;;;;;;;1.20;100.00;103404.97;5011365;28;20030;-67
2024/01/27 04:20:16;;;;;;;13.77;7.07;;;;;;;1.23;100.00;103418.13;5011751;28;20465;-67
2024/01/27 04:22:41;;;;;;;15.93;6.37;;;;;;;0.97;100.00;103377.47;5010784;28;20025;-67
2024/01/27 04:25:07;;;;;;;14.50;7.60;;;;;;;1.12;100.00;103423.19;5010025;28;20094;-67
2024/01/27 04:27:42;;;;;;;13.63;6.27;;;;;;;1.06;100.00;103412.59;5011225;28;20130;-67
2024/01/27 04:30:08;;;;;;;13.97;6.60;;;;;;;1.04;100.00;103403.81;5011154;28;20040;-67
2024/01/27 04:32:34;;;;;;;13.73;6.97;;;;;;;1.11;100.00;103416.16;5010952;28;20107;-67
2024/01/27 04:34:59;;;;;;;10.47;6.13;;;;;;;1.09;100.00;103415.28;5009265;28;20494;-67
2024/01/27 04:37:25;;;;;;;14.47;6.27;;;;;;;1.03;100.00;103419.50;5009317;28;20045;-67
2024/01/27 04:39:53;;;;;;;18.10;6.90;;;;;;;1.00;100.00;103420.38;5010968;28;20050;-67
2024/01/27 04:42:18;;;;;;;14.30;6.43;;;;;;;0.99;100.00;103421.19;5010700;28;20502;-67
2024/01/27 04:44:43;;;;;;;20.53;7.40;;;;;;;0.99;100.00;103431.69;5009551;28;20030;-67
2024/01/27 04:47:09;;;;;;;18.07;7.17;;;;;;;0.94;100.00;103412.34;5010533;28;20030;-67
2024/01/27 04:49:34;;;;;;;15.13;6.57;;;;;;;0.99;100.00;103431.69;5010946;28;20029;-67
2024/01/27 04:52:00;;;;;;;23.83;7.83;;;;;;;1.00;100.00;103429.94;5009408;28;20064;-67
2024/01/27 04:54:25;;;;;;;27.37;7.87;;;;;;;1.02;100.00;103425.63;5009309;28;20029;-67
2024/01/27 04:56:53;;;;;;;17.07;6.80;;;;;;;1.00;100.00;103420.38;5010784;28;20037;-67
2024/01/27 04:59:18;;;;;;;14.40;7.33;;;;;;;1.01;100.00;103419.50;5011595;28;20413;-67
2024/01/27 05:01:47;;;;;;;14.77;6.97;;;;;;;1.01;100.00;103416.00;5006981;28;20044;-67
2024/01/27 05:04:13;;;;;;;17.63;6.73;;;;;;;0.94;100.00;103407.13;4999431;28;20516;-67
2024/01/27 05:06:41;;;;;;;22.80;7.73;;;;;;;1.02;100.00;103418.63;5003364;28;20070;-67
2024/01/27 05:09:07;;;;;;;17.73;7.20;;;;;;;1.03;100.00;103424.75;5005791;28;20476;-67
2024/01/27 05:11:32;;;;;;;13.23;7.17;;;;;;;1.00;100.00;103411.59;5010354;28;20079;-67
2024/01/27 05:13:59;;;;;;;10.93;6.60;;;;;;;1.02;100.00;103430.84;5010594;28;20029;-67
2024/01/27 05:16:24;;;;;;;17.33;8.07;;;;;;;0.98;100.00;103419.44;5010660;28;20040;-67
2024/01/27 05:18:50;;;;;;;13.27;7.23;;;;;;;1.01;100.00;103418.63;5010567;28;20499;-66
2024/01/27 05:21:15;;;;;;;11.30;6.43;;;;;;;1.01;100.00;103423.84;5008237;28;20029;-67
2024/01/27 05:23:41;;;;;;;15.50;7.10;;;;;;;0.99;100.00;103415.97;5010438;28;20021;-67
2024/01/27 05:26:10;;;;;;;15.23;7.47;;;;;;;0.91;100.00;103407.06;5009107;28;20500;-67
2024/01/27 05:28:35;;;;;;;19.83;8.60;;;;;;;0.77;100.00;103382.38;5010637;28;20022;-67
2024/01/27 05:31:03;;;;;;;16.87;7.17;;;;;;;0.98;100.00;103427.31;5010112;28;20389;-67
2024/01/27 05:33:29;;;;;;;11.93;6.47;;;;;;;0.96;100.00;103422.88;5010275;28;20029;-67
2024/01/27 05:35:54;;;;;;;11.30;7.20;;;;;;;0.88;100.00;103412.25;5009467;28;21113;-67
2024/01/27 05:38:19;;;;;;;15.97;8.90;;;;;;;0.89;100.00;103425.41;5009423;28;20045;-67
2024/01/27 05:40:45;;;;;;;15.07;7.00;;;;;;;0.83;100.00;103413.94;5010577;28;20025;-67
2024/01/27 05:43:10;;;;;;;17.80;8.07;;;;;;;0.84;100.00;103419.19;5009712;28;20113;-67
2024/01/27 05:45:36;;;;;;;14.13;7.67;;;;;;;0.74;100.00;103403.28;5009311;28;20018;-67
2024/01/27 05:48:02;;;;;;;23.30;7.83;;;;;;;0.72;100.00;103394.50;5010031;28;20041;-67
2024/01/27 05:50:27;;;;;;;15.63;7.00;;;;;;;0.75;100.00;103405.03;5010066;28;20033;-67
2024/01/27 05:52:53;;;;;;;14.23;7.30;;;;;;;0.70;100.00;103402.31;5008123;28;20026;-67
2024/01/27 05:55:18;;;;;;;14.13;7.40;;;;;;;0.68;100.00;103394.44;5009274;28;20140;-67
2024/01/27 05:57:44;;;;;;;13.00;7.57;;;;;;;0.72;100.00;103402.34;5010507;28;20397;-67
2024/01/27 06:00:10;;;;;;;16.43;8.13;;;;;;;0.70;100.00;103404.94;5010532;28;20152;-67
2024/01/27 06:02:38;;;;;;;13.77;7.83;;;;;;;0.63;100.00;103395.19;5010292;28;20041;-67
2024/01/27 06:05:08;;;;;;;13.53;7.63;;;;;;;0.71;100.00;103400.56;5008804;28;20026;-67
2024/01/27 06:07:34;;;;;;;16.23;7.28;;;;;;;0.70;100.00;103401.44;5008951;28;20484;-67
2024/01/27 06:09:59;;;;;;;20.17;8.20;;;;;;;0.68;100.00;103394.44;5010048;28;20132;-67
2024/01/27 06:12:25;;;;;;;15.87;7.80;;;;;;;0.76;100.00;103399.81;5006604;28;20018;-67
2024/01/27 06:14:50;;;;;;;15.43;8.53;;;;;;;0.78;100.00;103392.88;5003249;28;20030;-67
2024/01/27 06:17:16;;;;;;;12.73;8.13;;;;;;;0.78;100.00;103402.47;4998003;28;20381;-67
2024/01/27 06:19:41;;;;;;;12.37;7.80;;;;;;;0.76;100.00;103401.53;4999279;28;20022;-67
2024/01/27 06:22:07;;;;;;;11.53;7.03;;;;;;;0.72;100.00;103403.22;5000809;28;20444;-67
2024/01/27 06:24:32;;;;;;;27.13;8.40;;;;;;;0.73;100.00;103398.88;5000169;28;20076;-67
2024/01/27 06:26:58;;;;;;;19.13;8.97;;;;;;;0.74;100.00;103398.03;4999981;28;20059;-67
2024/01/27 06:29:23;;;;;;;17.40;8.67;;;;;;;0.71;100.00;103398.84;5002851;28;20101;-67
2024/01/27 06:31:51;;;;;;;19.67;8.03;;;;;;;0.67;100.00;103397.88;4995112;28;20128;-67
2024/01/27 06:34:16;;;;;;;17.37;9.23;;;;;;;0.74;100.00;103413.75;5007018;28;20021;-67
2024/01/27 06:36:42;;;;;;;17.57;8.37;;;;;;;0.76;100.00;103409.41;5008778;28;20107;-67
2024/01/27 06:39:07;;;;;;;21.23;9.57;;;;;;;0.75;100.00;103402.41;5009797;28;20053;-68
2024/01/27 06:41:33;;;;;;;18.40;8.87;;;;;;;0.76;100.00;103409.41;5013420;28;20618;-67
2024/01/27 06:43:58;;;;;;;17.53;8.00;;;;;;;0.72;100.00;103412.84;5011873;28;20531;-67
2024/01/27 06:46:24;;;;;;;23.83;10.00;;;;;;;0.72;100.00;103412.84;5012249;28;20113;-67
2024/01/27 06:48:50;;;;;;;21.87;9.60;;;;;;;0.72;100.00;103413.72;5011708;28;20022;-67
2024/01/27 06:51:17;;;;;;;22.07;9.90;;;;;;;0.69;100.00;103413.66;5013032;28;20035;-67
2024/01/27 06:53:43;;;;;;;14.30;7.67;;;;;;;0.73;100.00;103431.19;5013596;28;20129;-67
2024/01/27 06:56:08;;;;;;;18.10;8.83;;;;;;;0.71;100.00;103432.91;5011939;28;20034;-67
2024/01/27 06:58:34;;;;;;;16.87;10.40;;;;;;;0.70;100.00;103444.22;5013478;28;20450;-67
2024/01/27 07:01:00;;;;;;;18.97;9.43;;;;;;;0.74;100.00;103450.41;5012989;28;20028;-67
2024/01/27 07:03:25;;;;;;;21.63;9.30;;;;;;;0.70;100.00;103451.19;5012269;28;20032;-67
2024/01/27 07:05:51;;;;;;;20.70;9.63;;;;;;;0.71;100.00;103451.25;5012941;28;20053;-67
2024/01/27 07:08:16;;;;;;;16.70;8.87;;;;;;;0.71;100.00;103448.63;5010997;28;20057;-67
2024/01/27 07:10:43;;;;;;;17.80;9.17;;;;;;;0.67;100.00;103450.28;5012560;28;20449;-68
2024/01/27 07:13:08;;;;;;;14.73;8.57;;;;;;;0.70;100.00;103451.19;5012529;28;20460;-67
2024/01/27 07:15:34;;;;;;;15.20;8.60;;;;;;;0.71;100.00;103455.56;5011433;28;20050;-67
2024/01/27 07:17:59;;;;;;;21.33;9.23;;;;;;;0.69;100.00;103445.06;5012067;28;20404;-67
2024/01/27 07:20:24;;;;;;;23.73;9.43;;;;;;;0.70;100.00;103449.44;5012241;28;20445;-67
2024/01/27 07:22:50;;;;;;;23.67;8.60;;;;;;;0.68;100.00;103459.91;5011843;28;20050;-67
2024/01/27 07:25:15;;;;;;;17.93;8.80;;;;;;;0.66;100.00;103455.50;5012046;28;20397;-67
2024/01/27 07:27:41;;;;;;;21.00;8.70;;;;;;;0.66;100.00;103456.38;5007813;28;20472;-67
2024/01/27 07:30:11;;;;;;;18.83;10.70;;;;;;;0.63;100.00;103455.44;5012151;28;20101;-67
2024/01/27 07:32:38;;;;;;;19.50;9.18;;;;;;;0.58;100.00;103449.22;5011874;28;20362;-67
2024/01/27 07:35:05;;;;;;;23.43;10.23;;;;;;;0.66;100.00;103461.59;5011555;28;20335;-67
2024/01/27 07:37:31;;;;;;;16.73;8.53;;;;;;;0.65;100.00;103454.63;5011076;28;20033;-67
2024/01/27 07:39:56;;;;;;;20.90;8.73;;;;;;;0.68;100.00;103461.66;5010884;28;20022;-67
2024/01/27 07:42:22;;;;;;;19.83;9.27;;;;;;;0.67;100.00;103465.97;5012055;28;20333;-67
2024/01/27 07:44:47;;;;;;;16.97;6.53;;;;;;;0.70;100.00;103461.66;5012228;28;20018;-67
2024/01/27 07:47:12;;;;;;;19.73;10.30;;;;;;;0.64;100.00;103452.81;5008853;28;20025;-67
2024/01/27 07:49:38;;;;;;;24.43;8.63;;;;;;;0.71;100.00;103459.09;5012194;28;20033;-67
2024/01/27 07:52:03;;;;;;;22.33;9.07;;;;;;;0.70;100.00;103464.28;5011153;28;20481;-67
2024/01/27 07:54:31;;;;;;;27.97;9.57;;;;;;;0.73;100.00;103466.97;5010847;28;20033;-67
2024/01/27 07:56:56;;;;;;;23.33;9.90;;;;;;;0.75;100.00;103474.00;5011756;28;20096;-67
2024/01/27 07:59:21;;;;;;;18.27;8.83;;;;;;;0.73;100.00;103461.72;5011663;28;20132;-67
2024/01/27 08:01:47;;;;;;;19.97;9.23;;;;;;;0.74;100.00;103467.00;5011326;28;20037;-67
2024/01/27 08:04:12;;;;;;;27.47;8.67;;;;;;;0.81;100.00;103475.88;5011257;28;20039;-67
2024/01/27 08:06:49;;;;;;;21.93;8.80;;;;;;;0.83;100.00;103467.19;5010839;28;20025;-67
2024/01/27 08:09:15;;;;;;;20.33;9.73;;;;;;;0.85;100.00;103460.25;5010783;28;20033;-67
2024/01/27 08:11:41;;;;;;;21.67;8.50;;;;;;;0.91;100.00;103448.97;5009837;28;20026;-67
2024/01/27 08:14:06;;;;;;;17.20;9.43;;;;;;;0.97;100.00;103448.22;5009951;28;20045;-68
2024/01/27 08:16:32;;;;;;;21.60;9.93;;;;;;;0.96;100.00;103454.31;5008372;28;20034;-67
2024/01/27 08:18:57;;;;;;;29.97;9.70;;;;;;;0.96;100.00;103457.81;5010503;28;20026;-67
2024/01/27 08:21:25;;;;;;;19.50;9.33;;;;;;;0.99;100.00;103462.25;5007111;28;20034;-67
2024/01/27 08:23:50;;;;;;;17.87;8.37;;;;;;;0.94;100.00;103454.28;5006965;28;20034;-67
2024/01/27 08:26:16;;;;;;;27.83;8.73;;;;;;;0.96;100.00;103455.19;5010413;28;20059;-67
2024/01/27 08:28:41;;;;;;;21.27;8.97;;;;;;;1.00;100.00;103454.44;5011073;28;20076;-67
2024/01/27 08:31:07;;;;;;;23.67;9.23;;;;;;;1.02;100.00;103451.81;4999439;28;20022;-67
2024/01/27 08:33:32;;;;;;;18.73;10.07;;;;;;;0.99;100.00;103439.53;5007808;28;20033;-67
2024/01/27 08:35:57;;;;;;;18.37;9.47;;;;;;;1.10;100.00;103447.59;5008999;28;20049;-67
2024/01/27 08:38:23;;;;;;;24.50;9.53;;;;;;;1.11;100.00;103446.75;5002493;28;20040;-67
2024/01/27 08:40:48;;;;;;;16.57;8.80;;;;;;;1.19;100.00;103458.25;4995125;28;20092;-67
2024/01/27 08:43:14;;;;;;;21.20;9.33;;;;;;;1.23;100.00;103467.94;5008162;28;20029;-67
2024/01/27 08:45:40;;;;;;;20.77;8.03;;;;;;;1.32;100.00;103467.22;5011119;28;20049;-67
2024/01/27 08:48:06;;;;;;;25.30;9.97;;;;;;;1.36;100.00;103466.44;5011397;28;20029;-67
2024/01/27 08:50:31;;;;;;;20.00;8.20;;;;;;;1.45;100.00;103465.69;5008069;28;20024;-67
2024/01/27 08:52:57;;;;;;;25.27;8.43;;;;;;;1.44;100.00;103467.44;5002469;28;20496;-67
2024/01/27 08:55:23;;;;;;;25.03;9.40;;;;;;;1.47;100.00;103466.59;4994056;28;20076;-67
2024/01/27 08:57:49;;;;;;;12.70;6.80;;;;;;;1.53;100.00;103475.47;5010872;28;20025;-67
2024/01/27 09:00:16;;;;;;;18.23;8.70;;;;;;;1.53;100.00;103464.06;5011438;28;20381;-67
2024/01/27 09:02:45;;;;;;;18.73;8.97;;;;;;;1.67;100.00;103475.69;5010568;28;20025;-67
2024/01/27 09:05:10;;;;;;;23.90;9.50;;;;;;;1.73;100.00;103478.41;5010034;28;20443;-68
2024/01/27 09:07:39;;;;;;;16.53;8.07;;;;;;;1.81;100.00;103478.53;5009734;28;20022;-67
2024/01/27 09:10:05;;;;;;;20.53;9.40;;;;;;;1.88;100.00;103472.50;5010362;28;20033;-67
2024/01/27 09:12:30;;;;;;;22.63;9.73;;;;;;;1.92;100.00;103473.47;5009952;28;20057;-67
2024/01/27 09:14:56;;;;;;;19.90;8.77;;;;;;;1.97;100.00;103472.69;5006147;28;20022;-67
2024/01/27 09:17:22;;;;;;;24.43;9.97;;;;;;;1.98;100.00;103468.31;5010065;28;20382;-67
2024/01/27 09:19:47;;;;;;;30.13;8.87;;;;;;;2.06;100.00;103479.81;5010276;28;20101;-67
2024/01/27 09:22:15;;;;;;;26.77;9.40;;;;;;;2.11;100.00;103488.63;5009262;28;20409;-67
2024/01/27 09:24:40;;;;;;;21.42;8.90;;;;;;;2.24;100.00;103494.94;5005057;28;20113;-67
2024/01/27 09:27:06;;;;;;;20.00;9.32;;;;;;;2.22;100.00;103494.91;4998750;28;20109;-67
2024/01/27 09:29:31;;;;;;;19.73;9.10;;;;;;;2.24;100.00;103487.06;4992498;28;20386;-67
2024/01/27 09:31:57;;;;;;;18.95;9.52;;;;;;;2.32;100.00;103492.41;4990196;28;20030;-67
2024/01/27 09:34:22;;;;;;;21.83;9.65;;;;;;;2.35;100.00;103500.31;4996136;28;20168;-67
2024/01/27 09:36:47;;;;;;;17.00;8.63;;;;;;;2.34;100.00;103499.44;5008987;28;20072;-67
2024/01/27 09:39:15;;;;;;;21.65;9.25;;;;;;;2.46;100.00;103512.75;5006994;28;20029;-67
2024/01/27 09:41:41;;;;;;;25.17;9.57;;;;;;;2.34;100.00;103478.44;5006947;28;20044;-67
2024/01/27 09:44:10;;;;;;;17.38;8.15;;;;;;;2.60;100.00;103517.31;4994766;28;20033;-68
2024/01/27 09:46:35;;;;;;;25.98;10.50;;;;;;;2.61;100.00;103503.31;4991292;28;20034;-68
2024/01/27 09:49:02;;;;;;;24.33;8.55;;;;;;;2.77;100.00;103514.91;4991879;28;20437;-68
2024/01/27 09:51:29;;;;;;;20.30;8.80;;;;;;;2.82;100.00;103513.19;5007161;28;20489;-68
2024/01/27 09:53:54;;;;;;;20.05;8.85;;;;;;;2.91;100.00;103508.97;5008160;28;20446;-67
2024/01/27 09:56:20;;;;;;;27.70;9.43;;;;;;;3.04;100.00;103516.97;4993120;28;20100;-68
2024/01/27 09:58:47;;;;;;;25.08;8.93;;;;;;;3.26;100.00;103525.97;4992259;28;21046;-68
2024/01/27 10:01:12;;;;;;;23.40;8.15;;;;;;;3.31;100.00;103521.66;5001903;28;20091;-68
2024/01/27 10:03:43;;;;;;;14.60;9.00;;;;;;;3.41;100.00;103534.94;5009896;28;20018;-68
2024/01/27 10:06:09;;;;;;;19.20;8.48;;;;;;;3.47;100.00;103518.31;5007932;28;20426;-68
2024/01/27 10:08:35;;;;;;;17.85;7.65;;;;;;;3.66;100.00;103531.66;5008422;28;20025;-68
2024/01/27 10:11:07;;;;;;;23.00;8.63;;;;;;;3.82;100.00;103523.00;5009302;28;20531;-68
2024/01/27 10:13:33;;;;;;;18.25;8.15;;;;;;;4.00;100.00;103533.69;5009896;28;20606;-68
2024/01/27 10:16:09;;;;;;;22.83;9.55;;;;;;;4.19;100.00;103532.06;5013125;28;20022;-68
2024/01/27 10:18:35;;;;;;;20.10;7.47;;;;;;;4.40;100.00;103530.44;5013539;28;20477;-68
2024/01/27 10:21:16;;;;;;;18.27;7.82;;;;;;;4.57;100.00;103523.53;5012853;28;20149;-68
2024/01/27 10:23:41;;;;;;;23.92;8.27;;;;;;;4.86;98.62;103541.25;5013540;28;20049;-68
2024/01/27 10:26:11;;;;;;;18.73;7.70;;;;;;;5.04;98.07;103536.03;5012644;28;20057;-68
2024/01/27 10:28:36;;;;;;;20.95;7.25;;;;;;;5.34;97.42;103537.88;5013602;28;20026;-68
2024/01/27 10:31:12;;;;;;;18.40;8.50;;;;;;;5.74;96.73;103531.78;5012031;28;20080;-68
2024/01/27 10:33:38;;;;;;;21.23;7.53;;;;;;;6.05;94.78;103543.22;5012359;28;20512;-68
2024/01/27 10:36:04;;;;;;;19.95;7.70;;;;;;;6.36;94.39;103544.09;5012391;28;20505;-68
2024/01/27 10:38:39;;;;;;;17.52;8.18;;;;;;;6.69;92.08;103551.03;5013451;28;20069;-68
2024/01/27 10:41:10;;;;;;;21.60;7.72;;;;;;;6.95;91.93;103534.19;5010192;28;20022;-68
2024/01/27 10:43:36;;;;;;;15.85;5.45;;;;;;;7.12;90.26;103542.94;5012064;28;20034;-68
2024/01/27 10:46:05;;;;;;;18.98;7.20;;;;;;;7.13;88.02;103542.03;5011475;28;20033;-68
2024/01/27 10:48:34;;;;;;;21.13;7.22;;;;;;;7.40;86.69;103551.59;5011329;28;20025;-68
2024/01/27 10:51:03;;;;;;;22.92;8.10;;;;;;;7.68;84.99;103544.34;5012459;28;20547;-68
2024/01/27 10:53:35;;;;;;;19.60;6.18;;;;;;;8.06;84.14;103534.28;5012836;28;20366;-69
2024/01/27 10:56:01;;;;;;;19.33;7.68;;;;;;;8.54;82.41;103540.06;5012172;28;20309;-69
2024/01/27 10:58:28;;;;;;;14.88;6.22;;;;;;;8.96;82.45;103536.00;5012608;28;20018;-68
2024/01/27 11:00:53;;;;;;;14.43;5.47;;;;;;;9.24;83.48;103525.00;5012664;28;20498;-69
2024/01/27 11:03:20;;;;;;;16.35;6.15;;;;;;;9.29;76.95;103533.78;5012240;28;20045;-69
2024/01/27 11:05:50;;;;;;;20.55;5.72;;;;;;;9.39;75.23;103524.78;5011365;28;20022;-69
2024/01/27 11:08:18;;;;;;;17.38;6.13;;;;;;;9.56;75.27;103516.56;4993756;28;20080;-69
2024/01/27 11:10:43;;;;;;;14.77;5.35;;;;;;;9.62;74.64;103516.47;5010745;28;20116;-69
2024/01/27 11:13:09;;;;;;;17.75;8.35;;;;;;;9.38;73.81;103516.81;5012209;28;20116;-68
2024/01/27 11:15:37;;;;;;;15.43;6.22;;;;;;;9.97;73.71;103526.50;5012310;28;20022;-68